SIA525 VOMM-WSSS
Flight info
| Callsign | SIA525 |
|---|---|
| Flight time | N/A |
| Altitude | 39000 |
| Route | IDASO2B IDASO N571 GUNIP R467 VKL A464 ARAMA ARAMA1A |
| Aircraft | B38M/M-SDE1FGHILORVWXY/HB1 |
Departure
| Time | 2026-04-30 05:38 |
|---|---|
| Airport | Chennai International Airport (VOMM) |
Arrival
| Time | N/A |
|---|---|
| Airport | Singapore Changi Airport (WSSS) |
| Time | Latitude | Longitude | Altitude | Speed | Heading |
|---|---|---|---|---|---|
| 2026-04-30 04:52 | 12.98413 | 80.16493 | 47 ft | 0 kts | 163° |
| 2026-04-30 05:29 | 12.98432 | 80.16486 | 49 ft | 2 kts | 160° |
| 2026-04-30 05:29 | 12.98453 | 80.16478 | 49 ft | 4 kts | 153° |
| 2026-04-30 05:29 | 12.98476 | 80.16463 | 49 ft | 4 kts | 137° |
| 2026-04-30 05:30 | 12.98491 | 80.16444 | 47 ft | 1 kts | 121° |
| 2026-04-30 05:30 | 12.98491 | 80.16443 | 47 ft | 2 kts | 121° |
| 2026-04-30 05:33 | 12.98489 | 80.16449 | 45 ft | 2 kts | 111° |
| 2026-04-30 05:34 | 12.98493 | 80.16488 | 49 ft | 10 kts | 72° |
| 2026-04-30 05:34 | 12.98526 | 80.16580 | 51 ft | 18 kts | 69° |
| 2026-04-30 05:34 | 12.98577 | 80.16721 | 49 ft | 23 kts | 66° |
| 2026-04-30 05:34 | 12.98707 | 80.16735 | 51 ft | 22 kts | 347° |
| 2026-04-30 05:35 | 12.98796 | 80.16838 | 50 ft | 22 kts | 69° |
| 2026-04-30 05:35 | 12.98852 | 80.16987 | 49 ft | 23 kts | 69° |
| 2026-04-30 05:35 | 12.98914 | 80.17152 | 50 ft | 27 kts | 68° |
| 2026-04-30 05:35 | 12.99003 | 80.17350 | 50 ft | 34 kts | 68° |
| 2026-04-30 05:36 | 12.99096 | 80.17600 | 49 ft | 41 kts | 68° |
| 2026-04-30 05:36 | 12.99218 | 80.17870 | 52 ft | 42 kts | 68° |
| 2026-04-30 05:36 | 12.99329 | 80.18057 | 54 ft | 26 kts | 60° |
| 2026-04-30 05:36 | 12.99371 | 80.18238 | 51 ft | 27 kts | 70° |
| 2026-04-30 05:37 | 12.99498 | 80.18380 | 54 ft | 28 kts | 41° |
| 2026-04-30 05:37 | 12.99564 | 80.18410 | 49 ft | 9 kts | 330° |
| 2026-04-30 05:37 | 12.99561 | 80.18345 | 52 ft | 15 kts | 250° |
| 2026-04-30 05:37 | 12.99429 | 80.17997 | 52 ft | 93 kts | 249° |
| 2026-04-30 05:38 | 12.99109 | 80.17140 | 49 ft | 162 kts | 248° |
| 2026-04-30 05:38 | 12.98694 | 80.15972 | 624 ft | 179 kts | 248° |
| 2026-04-30 05:38 | 12.98283 | 80.14743 | 1499 ft | 186 kts | 250° |
| 2026-04-30 05:38 | 12.97869 | 80.13459 | 2262 ft | 195 kts | 253° |
| 2026-04-30 05:39 | 12.97960 | 80.11988 | 2712 ft | 230 kts | 293° |
| 2026-04-30 05:39 | 12.99105 | 80.10773 | 3405 ft | 248 kts | 332° |
| 2026-04-30 05:39 | 13.00846 | 80.10480 | 4174 ft | 266 kts | 8° |
| 2026-04-30 05:39 | 13.02604 | 80.11193 | 4950 ft | 278 kts | 28° |
| 2026-04-30 05:40 | 13.04377 | 80.12043 | 5592 ft | 283 kts | 22° |
| 2026-04-30 05:40 | 13.06217 | 80.12754 | 5753 ft | 281 kts | 15° |
| 2026-04-30 05:40 | 13.08123 | 80.13152 | 5828 ft | 280 kts | 9° |
| 2026-04-30 05:40 | 13.10044 | 80.13472 | 5854 ft | 279 kts | 9° |
| 2026-04-30 05:41 | 13.11941 | 80.13778 | 5852 ft | 279 kts | 8° |
| 2026-04-30 05:41 | 13.13841 | 80.14174 | 5862 ft | 280 kts | 23° |
| 2026-04-30 05:41 | 13.15381 | 80.15349 | 6509 ft | 278 kts | 50° |
| 2026-04-30 05:41 | 13.16388 | 80.17030 | 7470 ft | 278 kts | 63° |
| 2026-04-30 05:42 | 13.17327 | 80.18775 | 8385 ft | 280 kts | 60° |
| 2026-04-30 05:42 | 13.18291 | 80.20519 | 9304 ft | 282 kts | 60° |
| 2026-04-30 05:42 | 13.19254 | 80.22281 | 10157 ft | 286 kts | 60° |
| 2026-04-30 05:42 | 13.20253 | 80.24115 | 10606 ft | 304 kts | 60° |
| 2026-04-30 05:43 | 13.21319 | 80.26072 | 10936 ft | 324 kts | 60° |
| 2026-04-30 05:43 | 13.22439 | 80.28131 | 11366 ft | 339 kts | 60° |
| 2026-04-30 05:43 | 13.23593 | 80.30265 | 12036 ft | 344 kts | 60° |
| 2026-04-30 05:43 | 13.24759 | 80.32432 | 12680 ft | 350 kts | 60° |
| 2026-04-30 05:44 | 13.25942 | 80.34630 | 13432 ft | 352 kts | 60° |
| 2026-04-30 05:44 | 13.27134 | 80.36849 | 14008 ft | 359 kts | 60° |
| 2026-04-30 05:44 | 13.28351 | 80.39114 | 14585 ft | 363 kts | 60° |
| 2026-04-30 05:44 | 13.29338 | 80.41508 | 15144 ft | 369 kts | 75° |
| 2026-04-30 05:45 | 13.29562 | 80.44143 | 15677 ft | 375 kts | 95° |
| 2026-04-30 05:45 | 13.28962 | 80.46755 | 16221 ft | 380 kts | 112° |
| 2026-04-30 05:45 | 13.27922 | 80.49268 | 16741 ft | 385 kts | 113° |
| 2026-04-30 05:45 | 13.26855 | 80.51797 | 17299 ft | 388 kts | 114° |
| 2026-04-30 05:46 | 13.25763 | 80.54342 | 17855 ft | 391 kts | 114° |
| 2026-04-30 05:46 | 13.24651 | 80.56907 | 18320 ft | 395 kts | 115° |
| 2026-04-30 05:46 | 13.23520 | 80.59500 | 18732 ft | 400 kts | 115° |
| 2026-04-30 05:46 | 13.22394 | 80.62078 | 19198 ft | 402 kts | 115° |
| 2026-04-30 05:47 | 13.21240 | 80.64718 | 19623 ft | 406 kts | 115° |
| 2026-04-30 05:47 | 13.20076 | 80.67380 | 20010 ft | 410 kts | 116° |
| 2026-04-30 05:47 | 13.18898 | 80.70069 | 20417 ft | 414 kts | 115° |
| 2026-04-30 05:47 | 13.17719 | 80.72762 | 20909 ft | 415 kts | 115° |
| 2026-04-30 05:48 | 13.16529 | 80.75478 | 21310 ft | 419 kts | 115° |
| 2026-04-30 05:48 | 13.15330 | 80.78216 | 21711 ft | 422 kts | 116° |
| 2026-04-30 05:48 | 13.14121 | 80.80975 | 22126 ft | 425 kts | 116° |
| 2026-04-30 05:48 | 13.13118 | 80.83828 | 22552 ft | 429 kts | 102° |
| 2026-04-30 05:49 | 13.12749 | 80.86878 | 22947 ft | 433 kts | 96° |
| 2026-04-30 05:49 | 13.12452 | 80.89965 | 23295 ft | 437 kts | 96° |
| 2026-04-30 05:49 | 13.12172 | 80.93070 | 23673 ft | 439 kts | 96° |
| 2026-04-30 05:49 | 13.11905 | 80.96165 | 23980 ft | 442 kts | 96° |
| 2026-04-30 05:50 | 13.11640 | 80.99312 | 24329 ft | 444 kts | 96° |
| 2026-04-30 05:50 | 13.11374 | 81.02473 | 24663 ft | 446 kts | 96° |
| 2026-04-30 05:50 | 13.11108 | 81.05649 | 24993 ft | 448 kts | 96° |
| 2026-04-30 05:50 | 13.10840 | 81.08838 | 25332 ft | 450 kts | 96° |
| 2026-04-30 05:51 | 13.10571 | 81.12041 | 25648 ft | 452 kts | 96° |
| 2026-04-30 05:51 | 13.10299 | 81.15267 | 25969 ft | 454 kts | 96° |
| 2026-04-30 05:51 | 13.10026 | 81.18504 | 26290 ft | 457 kts | 96° |
| 2026-04-30 05:51 | 13.09751 | 81.21757 | 26603 ft | 459 kts | 96° |
| 2026-04-30 05:52 | 13.09475 | 81.25023 | 26926 ft | 461 kts | 97° |
| 2026-04-30 05:52 | 13.09196 | 81.28312 | 27232 ft | 463 kts | 97° |
| 2026-04-30 05:52 | 13.08916 | 81.31608 | 27532 ft | 465 kts | 97° |
| 2026-04-30 05:52 | 13.08635 | 81.34921 | 27832 ft | 468 kts | 97° |
| 2026-04-30 05:53 | 13.08351 | 81.38252 | 28126 ft | 470 kts | 97° |
| 2026-04-30 05:53 | 13.08070 | 81.41554 | 28421 ft | 472 kts | 97° |
| 2026-04-30 05:53 | 13.07783 | 81.44914 | 28704 ft | 474 kts | 97° |
| 2026-04-30 05:53 | 13.07494 | 81.48296 | 28990 ft | 476 kts | 97° |
| 2026-04-30 05:54 | 13.07203 | 81.51690 | 29274 ft | 478 kts | 97° |
| 2026-04-30 05:54 | 13.06910 | 81.55099 | 29548 ft | 480 kts | 97° |
| 2026-04-30 05:54 | 13.06617 | 81.58519 | 29815 ft | 482 kts | 97° |
| 2026-04-30 05:54 | 13.06322 | 81.61949 | 30054 ft | 484 kts | 97° |
| 2026-04-30 05:55 | 13.06025 | 81.65399 | 30260 ft | 486 kts | 97° |
| 2026-04-30 05:55 | 13.05725 | 81.68867 | 30453 ft | 489 kts | 97° |
| 2026-04-30 05:55 | 13.05424 | 81.72351 | 30645 ft | 491 kts | 97° |
| 2026-04-30 05:55 | 13.05121 | 81.75851 | 30859 ft | 493 kts | 97° |
| 2026-04-30 05:56 | 13.04816 | 81.79365 | 31057 ft | 496 kts | 97° |
| 2026-04-30 05:56 | 13.04510 | 81.82897 | 31250 ft | 498 kts | 97° |
| 2026-04-30 05:56 | 13.04205 | 81.86394 | 31452 ft | 500 kts | 97° |
| 2026-04-30 05:56 | 13.03896 | 81.89946 | 31704 ft | 500 kts | 96° |
| 2026-04-30 05:57 | 13.03586 | 81.93496 | 31961 ft | 501 kts | 96° |
| 2026-04-30 05:57 | 13.03275 | 81.97055 | 32223 ft | 501 kts | 96° |
| 2026-04-30 05:57 | 13.02962 | 82.00626 | 32483 ft | 501 kts | 96° |
| 2026-04-30 05:57 | 13.02650 | 82.04190 | 32733 ft | 502 kts | 96° |
| 2026-04-30 05:58 | 13.02336 | 82.07760 | 32992 ft | 502 kts | 96° |
| 2026-04-30 05:58 | 13.02022 | 82.11333 | 33246 ft | 503 kts | 96° |
| 2026-04-30 05:58 | 13.01707 | 82.14905 | 33492 ft | 503 kts | 96° |
| 2026-04-30 05:58 | 13.01395 | 82.18435 | 33767 ft | 503 kts | 96° |
| 2026-04-30 05:59 | 13.01080 | 82.22001 | 34042 ft | 501 kts | 96° |
| 2026-04-30 05:59 | 13.00765 | 82.25560 | 34297 ft | 501 kts | 96° |
| 2026-04-30 05:59 | 13.00451 | 82.29109 | 34558 ft | 499 kts | 96° |
| 2026-04-30 05:59 | 13.00137 | 82.32649 | 34840 ft | 498 kts | 95° |
| 2026-04-30 06:00 | 12.99823 | 82.36179 | 35086 ft | 497 kts | 95° |
| 2026-04-30 06:00 | 12.99408 | 82.39689 | 35311 ft | 496 kts | 104° |
| 2026-04-30 06:00 | 12.98450 | 82.43068 | 35578 ft | 493 kts | 107° |
| 2026-04-30 06:00 | 12.97498 | 82.46452 | 35745 ft | 494 kts | 107° |
| 2026-04-30 06:01 | 12.96540 | 82.49835 | 35967 ft | 494 kts | 107° |
| 2026-04-30 06:01 | 12.95576 | 82.53210 | 36180 ft | 493 kts | 107° |
| 2026-04-30 06:01 | 12.94608 | 82.56586 | 36410 ft | 493 kts | 107° |
| 2026-04-30 06:01 | 12.93642 | 82.59955 | 36624 ft | 492 kts | 107° |
| 2026-04-30 06:02 | 12.92677 | 82.63316 | 36833 ft | 491 kts | 107° |
| 2026-04-30 06:02 | 12.91712 | 82.66678 | 37042 ft | 491 kts | 107° |
| 2026-04-30 06:02 | 12.91074 | 82.68898 | 37176 ft | 490 kts | 106° |
| 2026-04-30 06:02 | 12.90110 | 82.72251 | 37379 ft | 490 kts | 106° |
| 2026-04-30 06:03 | 12.88823 | 82.76728 | 37635 ft | 489 kts | 106° |
| 2026-04-30 06:03 | 12.88187 | 82.78936 | 37763 ft | 489 kts | 107° |
| 2026-04-30 06:03 | 12.87225 | 82.82275 | 37934 ft | 488 kts | 106° |
| 2026-04-30 06:03 | 12.86263 | 82.85616 | 38098 ft | 488 kts | 106° |
| 2026-04-30 06:04 | 12.85301 | 82.88956 | 38260 ft | 487 kts | 106° |
| 2026-04-30 06:04 | 12.84339 | 82.92292 | 38416 ft | 487 kts | 106° |
| 2026-04-30 06:04 | 12.83379 | 82.95620 | 38564 ft | 487 kts | 106° |
| 2026-04-30 06:05 | 12.81461 | 83.02263 | 38812 ft | 485 kts | 106° |
| 2026-04-30 06:05 | 12.79544 | 83.08896 | 38888 ft | 487 kts | 106° |
| 2026-04-30 06:06 | 12.77621 | 83.15542 | 38883 ft | 486 kts | 106° |
| 2026-04-30 06:06 | 12.75707 | 83.22154 | 38884 ft | 488 kts | 106° |
| 2026-04-30 06:07 | 12.73772 | 83.28827 | 38878 ft | 488 kts | 106° |
| 2026-04-30 06:07 | 12.71837 | 83.35495 | 38880 ft | 488 kts | 106° |
| 2026-04-30 06:08 | 12.69900 | 83.42164 | 38878 ft | 488 kts | 106° |
| 2026-04-30 06:08 | 12.67976 | 83.48785 | 38875 ft | 489 kts | 107° |
| 2026-04-30 06:09 | 12.65991 | 83.55461 | 38878 ft | 490 kts | 112° |
| 2026-04-30 06:09 | 12.63042 | 83.61726 | 38878 ft | 490 kts | 116° |
| 2026-04-30 06:10 | 12.60043 | 83.67992 | 38883 ft | 490 kts | 117° |
| 2026-04-30 06:10 | 12.57032 | 83.74253 | 38882 ft | 490 kts | 117° |
| 2026-04-30 06:11 | 12.54019 | 83.80511 | 38886 ft | 490 kts | 117° |
| 2026-04-30 06:11 | 12.51022 | 83.86731 | 38887 ft | 490 kts | 117° |
| 2026-04-30 06:12 | 12.48006 | 83.92987 | 38886 ft | 490 kts | 117° |
| 2026-04-30 06:12 | 12.44987 | 83.99246 | 38886 ft | 490 kts | 117° |
| 2026-04-30 06:13 | 12.41963 | 84.05507 | 38884 ft | 490 kts | 117° |
| 2026-04-30 06:13 | 12.38941 | 84.11762 | 38885 ft | 490 kts | 117° |
| 2026-04-30 06:14 | 12.35936 | 84.17977 | 38886 ft | 490 kts | 117° |
| 2026-04-30 06:14 | 12.32916 | 84.24219 | 38885 ft | 489 kts | 117° |
| 2026-04-30 06:15 | 12.29899 | 84.30451 | 38886 ft | 489 kts | 118° |
| 2026-04-30 06:15 | 12.26876 | 84.36690 | 38893 ft | 489 kts | 118° |
| 2026-04-30 06:16 | 12.23849 | 84.42934 | 38891 ft | 489 kts | 118° |
| 2026-04-30 06:16 | 12.20844 | 84.49127 | 38890 ft | 489 kts | 118° |
| 2026-04-30 06:17 | 12.17818 | 84.55359 | 38887 ft | 489 kts | 118° |
| 2026-04-30 06:17 | 12.14789 | 84.61595 | 38888 ft | 489 kts | 118° |
| 2026-04-30 06:18 | 12.11759 | 84.67826 | 38891 ft | 489 kts | 118° |
| 2026-04-30 06:18 | 12.08731 | 84.74050 | 38892 ft | 488 kts | 118° |
| 2026-04-30 06:19 | 12.05708 | 84.80261 | 38892 ft | 488 kts | 118° |
| 2026-04-30 06:19 | 12.02683 | 84.86470 | 38890 ft | 488 kts | 118° |
| 2026-04-30 06:20 | 11.99657 | 84.92677 | 38889 ft | 488 kts | 118° |
| 2026-04-30 06:20 | 11.96654 | 84.98832 | 38891 ft | 486 kts | 118° |
| 2026-04-30 06:21 | 11.93632 | 85.05021 | 38897 ft | 486 kts | 118° |
| 2026-04-30 06:21 | 11.90610 | 85.11208 | 38895 ft | 487 kts | 118° |
| 2026-04-30 06:22 | 11.87585 | 85.17398 | 38891 ft | 487 kts | 118° |
| 2026-04-30 06:22 | 11.84558 | 85.23585 | 38897 ft | 487 kts | 118° |
| 2026-04-30 06:23 | 11.81528 | 85.29775 | 38897 ft | 487 kts | 118° |
| 2026-04-30 06:23 | 11.78501 | 85.35956 | 38896 ft | 487 kts | 118° |
| 2026-04-30 06:24 | 11.75490 | 85.42100 | 38896 ft | 487 kts | 118° |
| 2026-04-30 06:24 | 11.72462 | 85.48274 | 38898 ft | 486 kts | 118° |
| 2026-04-30 06:25 | 11.69424 | 85.54464 | 38899 ft | 486 kts | 118° |
| 2026-04-30 06:25 | 11.66392 | 85.60638 | 38896 ft | 487 kts | 118° |
| 2026-04-30 06:26 | 11.63356 | 85.66816 | 38898 ft | 486 kts | 118° |
| 2026-04-30 06:26 | 11.60322 | 85.72986 | 38897 ft | 486 kts | 118° |
| 2026-04-30 06:27 | 11.57305 | 85.79118 | 38893 ft | 486 kts | 118° |
| 2026-04-30 06:27 | 11.54270 | 85.85281 | 38892 ft | 486 kts | 118° |
| 2026-04-30 06:28 | 11.51233 | 85.91446 | 38897 ft | 486 kts | 118° |
| 2026-04-30 06:28 | 11.48194 | 85.97610 | 38895 ft | 486 kts | 118° |
| 2026-04-30 06:29 | 11.45153 | 86.03775 | 38900 ft | 486 kts | 118° |
| 2026-04-30 06:29 | 11.42112 | 86.09936 | 38897 ft | 486 kts | 118° |
| 2026-04-30 06:30 | 11.39069 | 86.16096 | 38896 ft | 486 kts | 118° |
| 2026-04-30 06:30 | 11.36023 | 86.22259 | 38902 ft | 486 kts | 118° |
| 2026-04-30 06:31 | 11.32999 | 86.28372 | 38901 ft | 486 kts | 118° |
| 2026-04-30 06:31 | 11.29951 | 86.34532 | 38904 ft | 486 kts | 118° |
| 2026-04-30 06:32 | 11.26913 | 86.40667 | 38896 ft | 483 kts | 118° |
| 2026-04-30 06:32 | 11.23888 | 86.46772 | 38900 ft | 483 kts | 118° |
| 2026-04-30 06:33 | 11.20856 | 86.52888 | 38902 ft | 483 kts | 118° |
| 2026-04-30 06:33 | 11.17824 | 86.58998 | 38902 ft | 483 kts | 118° |
| 2026-04-30 06:34 | 11.14793 | 86.65103 | 38898 ft | 483 kts | 118° |
| 2026-04-30 06:34 | 11.11777 | 86.71176 | 38900 ft | 483 kts | 118° |
| 2026-04-30 06:35 | 11.08745 | 86.77277 | 38895 ft | 483 kts | 118° |
| 2026-04-30 06:35 | 11.05711 | 86.83376 | 38900 ft | 483 kts | 118° |
| 2026-04-30 06:36 | 11.02678 | 86.89471 | 38900 ft | 483 kts | 118° |
| 2026-04-30 06:36 | 10.99642 | 86.95569 | 38905 ft | 483 kts | 118° |
| 2026-04-30 06:37 | 10.96605 | 87.01664 | 38902 ft | 482 kts | 118° |
| 2026-04-30 06:37 | 10.93570 | 87.07752 | 38898 ft | 482 kts | 118° |
| 2026-04-30 06:38 | 10.90558 | 87.13790 | 38898 ft | 478 kts | 118° |
| 2026-04-30 06:38 | 10.87552 | 87.19813 | 38898 ft | 477 kts | 118° |
| 2026-04-30 06:39 | 10.84541 | 87.25841 | 38900 ft | 477 kts | 118° |
| 2026-04-30 06:39 | 10.81533 | 87.31861 | 38901 ft | 478 kts | 118° |
| 2026-04-30 06:40 | 10.78521 | 87.37885 | 38898 ft | 477 kts | 118° |
| 2026-04-30 06:40 | 10.75508 | 87.43907 | 38901 ft | 477 kts | 118° |
| 2026-04-30 06:41 | 10.72494 | 87.49927 | 38896 ft | 477 kts | 118° |
| 2026-04-30 06:41 | 10.69498 | 87.55908 | 38899 ft | 478 kts | 118° |
| 2026-04-30 06:42 | 10.66479 | 87.61931 | 38896 ft | 478 kts | 118° |
| 2026-04-30 06:42 | 10.63455 | 87.67961 | 38897 ft | 478 kts | 118° |
| 2026-04-30 06:43 | 10.60437 | 87.73976 | 38902 ft | 478 kts | 118° |
| 2026-04-30 06:43 | 10.57416 | 87.79993 | 38904 ft | 478 kts | 118° |
| 2026-04-30 06:44 | 10.54403 | 87.85991 | 38901 ft | 474 kts | 118° |
| 2026-04-30 06:44 | 10.51410 | 87.91946 | 38899 ft | 472 kts | 118° |
| 2026-04-30 06:45 | 10.48436 | 87.97859 | 38895 ft | 473 kts | 118° |
| 2026-04-30 06:45 | 10.45443 | 88.03808 | 38901 ft | 473 kts | 118° |
| 2026-04-30 06:46 | 10.42444 | 88.09765 | 38898 ft | 473 kts | 118° |
| 2026-04-30 06:46 | 10.39448 | 88.15714 | 38897 ft | 473 kts | 118° |
| 2026-04-30 06:47 | 10.36452 | 88.21659 | 38898 ft | 473 kts | 118° |
| 2026-04-30 06:47 | 10.33452 | 88.27607 | 38900 ft | 473 kts | 118° |
| 2026-04-30 06:48 | 10.30957 | 88.32553 | 38899 ft | 473 kts | 119° |
| 2026-04-30 06:48 | 10.27468 | 88.39465 | 38898 ft | 473 kts | 119° |
| 2026-04-30 06:49 | 10.24956 | 88.44440 | 38900 ft | 473 kts | 119° |
| 2026-04-30 06:49 | 10.21970 | 88.50349 | 38901 ft | 472 kts | 118° |
| 2026-04-30 06:50 | 10.19151 | 88.56364 | 38912 ft | 471 kts | 116° |
| 2026-04-30 06:50 | 10.16402 | 88.62383 | 38899 ft | 469 kts | 116° |
| 2026-04-30 06:51 | 10.13649 | 88.68388 | 38896 ft | 469 kts | 116° |
| 2026-04-30 06:51 | 10.10893 | 88.74396 | 38898 ft | 469 kts | 116° |
| 2026-04-30 06:52 | 10.08156 | 88.80359 | 38901 ft | 469 kts | 116° |
| 2026-04-30 06:52 | 10.05397 | 88.86367 | 38906 ft | 469 kts | 116° |
| 2026-04-30 06:53 | 10.02646 | 88.92352 | 38902 ft | 467 kts | 116° |
| 2026-04-30 06:53 | 9.99898 | 88.98330 | 38899 ft | 467 kts | 116° |
| 2026-04-30 06:54 | 9.97169 | 89.04261 | 38900 ft | 467 kts | 116° |
| 2026-04-30 06:54 | 9.94419 | 89.10236 | 38900 ft | 467 kts | 116° |
| 2026-04-30 06:55 | 9.91669 | 89.16208 | 38902 ft | 467 kts | 116° |
| 2026-04-30 06:55 | 9.88918 | 89.22178 | 38903 ft | 467 kts | 116° |
| 2026-04-30 06:56 | 9.86170 | 89.28137 | 38897 ft | 465 kts | 116° |
| 2026-04-30 06:56 | 9.83431 | 89.34076 | 38894 ft | 464 kts | 116° |
| 2026-04-30 06:57 | 9.80699 | 89.39994 | 38902 ft | 461 kts | 116° |
| 2026-04-30 06:57 | 9.77980 | 89.45882 | 38904 ft | 461 kts | 116° |
| 2026-04-30 06:58 | 9.75259 | 89.51771 | 38899 ft | 461 kts | 116° |
| 2026-04-30 06:58 | 9.72535 | 89.57662 | 38898 ft | 461 kts | 116° |
| 2026-04-30 06:59 | 9.69811 | 89.63552 | 38894 ft | 461 kts | 116° |
| 2026-04-30 06:59 | 9.67099 | 89.69412 | 38897 ft | 461 kts | 116° |
| 2026-04-30 07:00 | 9.64373 | 89.75300 | 38897 ft | 461 kts | 116° |
| 2026-04-30 07:00 | 9.61641 | 89.81196 | 38898 ft | 462 kts | 116° |
| 2026-04-30 07:01 | 9.58910 | 89.87089 | 38895 ft | 461 kts | 116° |
| 2026-04-30 07:01 | 9.56175 | 89.92985 | 38894 ft | 462 kts | 117° |
| 2026-04-30 07:02 | 9.53458 | 89.98841 | 38895 ft | 462 kts | 116° |
| 2026-04-30 07:02 | 9.50723 | 90.04732 | 38894 ft | 462 kts | 116° |
| 2026-04-30 07:03 | 9.47983 | 90.10631 | 38893 ft | 462 kts | 116° |
| 2026-04-30 07:03 | 9.45240 | 90.16533 | 38898 ft | 461 kts | 116° |
| 2026-04-30 07:04 | 9.42516 | 90.22391 | 38893 ft | 458 kts | 116° |
| 2026-04-30 07:04 | 9.39796 | 90.28239 | 38897 ft | 459 kts | 116° |
| 2026-04-30 07:05 | 9.35722 | 90.36989 | 38894 ft | 459 kts | 116° |
| 2026-04-30 07:05 | 9.33000 | 90.42834 | 38894 ft | 459 kts | 117° |
| 2026-04-30 07:06 | 9.30274 | 90.48683 | 38897 ft | 459 kts | 117° |
| 2026-04-30 07:06 | 9.27549 | 90.54527 | 38897 ft | 458 kts | 117° |
| 2026-04-30 07:07 | 9.24838 | 90.60339 | 38900 ft | 459 kts | 117° |
| 2026-04-30 07:07 | 9.22113 | 90.66178 | 38897 ft | 459 kts | 117° |
| 2026-04-30 07:08 | 9.19383 | 90.72023 | 38896 ft | 459 kts | 117° |
| 2026-04-30 07:08 | 9.16655 | 90.77862 | 38896 ft | 459 kts | 117° |
| 2026-04-30 07:09 | 9.13928 | 90.83697 | 38893 ft | 458 kts | 117° |
| 2026-04-30 07:09 | 9.11220 | 90.89487 | 38894 ft | 458 kts | 117° |
| 2026-04-30 07:10 | 9.08493 | 90.95314 | 38894 ft | 458 kts | 117° |
| 2026-04-30 07:10 | 9.05773 | 91.01124 | 38889 ft | 455 kts | 117° |
| 2026-04-30 07:11 | 9.03061 | 91.06915 | 38897 ft | 455 kts | 117° |
| 2026-04-30 07:11 | 9.00345 | 91.12710 | 38896 ft | 455 kts | 117° |
| 2026-04-30 07:12 | 8.97633 | 91.18496 | 38898 ft | 455 kts | 116° |
| 2026-04-30 07:12 | 8.94920 | 91.24279 | 38894 ft | 455 kts | 116° |
| 2026-04-30 07:13 | 8.92206 | 91.30064 | 38893 ft | 455 kts | 116° |
| 2026-04-30 07:13 | 8.89493 | 91.35841 | 38897 ft | 455 kts | 117° |
| 2026-04-30 07:14 | 8.86796 | 91.41582 | 38890 ft | 455 kts | 117° |
| 2026-04-30 07:14 | 8.84079 | 91.47364 | 38892 ft | 455 kts | 117° |
| 2026-04-30 07:15 | 8.81364 | 91.53139 | 38887 ft | 455 kts | 117° |
| 2026-04-30 07:15 | 8.78651 | 91.58907 | 38887 ft | 453 kts | 117° |
| 2026-04-30 07:16 | 8.75949 | 91.64649 | 38893 ft | 453 kts | 117° |
| 2026-04-30 07:16 | 8.73243 | 91.70398 | 38893 ft | 453 kts | 117° |
| 2026-04-30 07:17 | 8.70537 | 91.76144 | 38891 ft | 452 kts | 117° |
| 2026-04-30 07:18 | 8.66504 | 91.84700 | 38893 ft | 451 kts | 117° |
| 2026-04-30 07:18 | 8.63802 | 91.90431 | 38893 ft | 451 kts | 117° |
| 2026-04-30 07:19 | 8.61102 | 91.96154 | 38894 ft | 451 kts | 117° |
| 2026-04-30 07:19 | 8.58478 | 92.01927 | 38895 ft | 452 kts | 115° |
| 2026-04-30 07:20 | 8.55915 | 92.07730 | 38886 ft | 452 kts | 115° |
| 2026-04-30 07:20 | 8.53345 | 92.13530 | 38890 ft | 452 kts | 115° |
| 2026-04-30 07:21 | 8.50791 | 92.19289 | 38889 ft | 452 kts | 115° |
| 2026-04-30 07:21 | 8.48220 | 92.25084 | 38891 ft | 452 kts | 115° |
| 2026-04-30 07:22 | 8.44359 | 92.33781 | 38887 ft | 452 kts | 115° |
| 2026-04-30 07:22 | 8.41785 | 92.39577 | 38886 ft | 452 kts | 115° |
| 2026-04-30 07:23 | 8.39210 | 92.45371 | 38886 ft | 452 kts | 115° |
| 2026-04-30 07:23 | 8.36653 | 92.51122 | 38888 ft | 452 kts | 115° |
| 2026-04-30 07:24 | 8.34079 | 92.56909 | 38890 ft | 452 kts | 115° |
| 2026-04-30 07:24 | 8.31500 | 92.62705 | 38888 ft | 452 kts | 115° |
| 2026-04-30 07:25 | 8.28923 | 92.68493 | 38889 ft | 452 kts | 115° |
| 2026-04-30 07:25 | 8.26345 | 92.74282 | 38890 ft | 452 kts | 115° |
| 2026-04-30 07:26 | 8.23766 | 92.80071 | 38887 ft | 452 kts | 115° |
| 2026-04-30 07:26 | 8.21182 | 92.85866 | 38886 ft | 452 kts | 115° |
| 2026-04-30 07:27 | 8.18603 | 92.91647 | 38886 ft | 452 kts | 115° |
| 2026-04-30 07:27 | 8.16038 | 92.97396 | 38886 ft | 452 kts | 115° |
| 2026-04-30 07:28 | 8.13454 | 93.03185 | 38883 ft | 452 kts | 115° |
| 2026-04-30 07:28 | 8.10874 | 93.08962 | 38889 ft | 449 kts | 116° |
| 2026-04-30 07:29 | 8.08317 | 93.14684 | 38882 ft | 447 kts | 116° |
| 2026-04-30 07:29 | 8.05758 | 93.20410 | 38884 ft | 447 kts | 116° |
| 2026-04-30 07:30 | 8.01922 | 93.28986 | 38884 ft | 447 kts | 116° |
| 2026-04-30 07:31 | 7.99364 | 93.34704 | 38887 ft | 447 kts | 116° |
| 2026-04-30 07:31 | 7.96804 | 93.40424 | 38883 ft | 447 kts | 116° |
| 2026-04-30 07:32 | 7.94241 | 93.46146 | 38884 ft | 447 kts | 116° |
| 2026-04-30 07:32 | 7.91704 | 93.51840 | 38884 ft | 447 kts | 116° |
| 2026-04-30 07:33 | 7.89161 | 93.57568 | 38879 ft | 447 kts | 116° |
| 2026-04-30 07:33 | 7.86617 | 93.63296 | 38878 ft | 447 kts | 116° |
| 2026-04-30 07:34 | 7.84069 | 93.69029 | 38882 ft | 447 kts | 116° |
| 2026-04-30 07:34 | 7.81955 | 93.73785 | 38880 ft | 447 kts | 116° |
| 2026-04-30 07:35 | 7.79407 | 93.79512 | 38883 ft | 447 kts | 116° |
| 2026-04-30 07:35 | 7.76458 | 93.86141 | 38880 ft | 443 kts | 115° |
| 2026-04-30 07:36 | 7.74343 | 93.90891 | 38881 ft | 443 kts | 115° |
| 2026-04-30 07:36 | 7.71820 | 93.96558 | 38880 ft | 443 kts | 115° |
| 2026-04-30 07:37 | 7.69295 | 94.02226 | 38881 ft | 443 kts | 115° |
| 2026-04-30 07:37 | 7.66783 | 94.07861 | 38881 ft | 443 kts | 115° |